Buoy 44845

sailwx.info

Track history (hours):
 
Tides and Currents Weather Stations Pressure Air Temp Water Temp Dewpoint Dewpoint Depression Visibility Wind Speed Wind Dir Waves Ship Positions

Drifting buoy 44845

Last reported at 2014-Nov-28 22:01 UTC. Time now 2014-Nov-28 22:55 UTC.
Position N 71°38' W 001°26'.

Water temperature 6.0 ° C

Date/timePositionNaut miles runAvg speedWind from/ knotsBaromVisibWave heightAir tempDewpointWater temp
2014-Nov-28 22:01N 71°38' W 001°26'0 0.0 6.0
2014-Nov-28 21:01N 71°38' W 001°26'0 0.4 6.0
2014-Nov-28 20:01N 71°38' W 001°25'1 0.6 6.0
2014-Nov-28 19:01N 71°38' W 001°24'1 0.7 6.0
2014-Nov-28 18:01N 71°37' W 001°23'1 0.6 6.0
2014-Nov-28 17:01N 71°37' W 001°22'1 0.7 5.9
2014-Nov-28 16:01N 71°36' W 001°21'1 0.6 5.9
2014-Nov-28 15:01N 71°35' W 001°20'1 0.7 6.0
2014-Nov-28 14:01N 71°35' W 001°19'1 0.6 6.0
2014-Nov-28 13:01N 71°34' W 001°19'1 0.6 5.9
2014-Nov-28 12:01N 71°34' W 001°18'1 0.6 5.9
2014-Nov-28 11:01N 71°33' W 001°17'1 0.7 5.9
2014-Nov-28 10:01N 71°32' W 001°16'0 0.2 5.8
2014-Nov-28 09:01N 71°32' W 001°16'1 0.6 5.7
2014-Nov-28 08:01N 71°32' W 001°16'1 0.6 5.5
2014-Nov-28 07:01N 71°31' W 001°16'1 0.6 5.5
2014-Nov-28 06:01N 71°31' W 001°15'1 0.6 5.3
2014-Nov-28 05:01N 71°30' W 001°16'0 0.0 5.2
2014-Nov-28 04:01N 71°30' W 001°16'1 0.6 5.2
2014-Nov-28 03:01N 71°29' W 001°16'1 0.6 5.3
2014-Nov-28 02:01N 71°29' W 001°16'1 0.6 5.3
2014-Nov-28 01:01N 71°28' W 001°17'0 0.2 5.2
2014-Nov-28 00:01N 71°28' W 001°17'1 0.7 4.9
2014-Nov-27 23:01N 71°28' W 001°19'1 0.7 4.6
2014-Nov-27 22:01N 71°27' W 001°20'1 0.7 4.7
2014-Nov-27 21:01N 71°26' W 001°21'1 0.6 4.7
2014-Nov-27 20:01N 71°26' W 001°23'1 0.7 4.6
2014-Nov-27 19:01N 71°26' W 001°24'1 0.6 4.2
2014-Nov-27 18:01N 71°26' W 001°26'1 0.6 4.4
2014-Nov-27 17:01N 71°26' W 001°28'1 0.8 4.5
2014-Nov-27 16:01N 71°26' W 001°30'1 0.8 4.7
2014-Nov-27 15:01N 71°26' W 001°32'1 0.6 5.0
2014-Nov-27 14:01N 71°26' W 001°34'1 0.8 5.2
2014-Nov-27 13:01N 71°26' W 001°37'1 0.8 5.3
2014-Nov-27 12:01N 71°26' W 001°38'1 0.8 5.3
2014-Nov-27 11:01N 71°27' W 001°40'1 0.8 5.3
2014-Nov-27 10:01N 71°28' W 001°42'1 0.8 5.3
2014-Nov-27 09:01N 71°28' W 001°44'1 1.0 5.3
2014-Nov-27 08:01N 71°29' W 001°46'1 0.8 5.4
2014-Nov-27 07:01N 71°29' W 001°48'1 0.7 5.4
2014-Nov-27 06:01N 71°30' W 001°49'1 1.2 5.4
2014-Nov-27 05:01N 71°31' W 001°50'1 0.6 5.4
2014-Nov-27 04:01N 71°32' W 001°50'1 0.6 5.5
2014-Nov-27 03:01N 71°32' W 001°51'1 1.2 5.5
2014-Nov-27 02:01N 71°34' W 001°52'1 1.3 5.6
2014-Nov-27 01:01N 71°35' W 001°53'1 0.8 5.6
2014-Nov-27 00:01N 71°35' W 001°55'1 0.8 5.6
2014-Nov-26 23:01N 71°36' W 001°56'1 0.8 5.6
2014-Nov-26 22:01N 71°37' W 001°58'1 1.0 5.6
2014-Nov-26 21:01N 71°37' W 002°01'1 0.8 5.4
2014-Nov-26 20:01N 71°37' W 002°03'2 0.8 5.3
2014-Nov-26 18:01N 71°37' W 002°08'1 0.9 5.4
2014-Nov-26 17:01N 71°37' W 002°11'1 0.9 5.8
2014-Nov-26 16:01N 71°37' W 002°14'1 0.8 6.0
2014-Nov-26 15:01N 71°37' W 002°16'1 0.8 6.1
2014-Nov-26 14:01N 71°37' W 002°19'1 0.8 6.2
2014-Nov-26 13:01N 71°37' W 002°21'1 0.9 6.2
2014-Nov-26 12:01N 71°37' W 002°24'1 0.8 6.2
2014-Nov-26 11:01N 71°37' W 002°26'1 0.9 6.3
2014-Nov-26 10:01N 71°37' W 002°29'1 1.1 6.3
2014-Nov-26 09:01N 71°37' W 002°33'1 0.9 6.3
2014-Nov-26 08:01N 71°37' W 002°36'1 1.3 6.4
2014-Nov-26 07:01N 71°37' W 002°40'1 0.8 6.4
2014-Nov-26 06:01N 71°37' W 002°42'1 1.0 6.4
2014-Nov-26 05:01N 71°36' W 002°44'1 1.0 6.4
2014-Nov-26 04:01N 71°35' W 002°47'1 0.7 6.4
2014-Nov-26 03:01N 71°35' W 002°48'1 0.6 6.4
2014-Nov-26 02:01N 71°34' W 002°49'1 0.6 6.3
2014-Nov-26 01:01N 71°34' W 002°49'1 0.6 6.3
2014-Nov-26 00:01N 71°33' W 002°50'0 0.2 6.3
2014-Nov-25 23:01N 71°33' W 002°50'1 0.6 6.3
2014-Nov-25 22:01N 71°32' W 002°51'1 0.6 6.3
2014-Nov-25 21:01N 71°32' W 002°51'1 0.6 6.3
2014-Nov-25 20:01N 71°31' W 002°52'0 0.0 6.3
2014-Nov-25 19:01N 71°31' W 002°52'1 0.6 6.3
2014-Nov-25 18:01N 71°31' W 002°52'1 0.6 6.3
2014-Nov-25 17:01N 71°30' W 002°53'1 0.6 6.3
2014-Nov-25 16:01N 71°29' W 002°53'1 0.6 6.3
2014-Nov-25 15:01N 71°29' W 002°52'1 0.6 6.4
2014-Nov-25 14:01N 71°28' W 002°52'1 0.7 6.4
2014-Nov-25 13:01N 71°28' W 002°50'1 0.8 6.4
2014-Nov-25 12:01N 71°27' W 002°49'1 0.7 6.3
2014-Nov-25 11:01N 71°26' W 002°47'1 0.7 6.3
2014-Nov-25 10:01N 71°26' W 002°46'0 0.4 6.3
2014-Nov-25 09:01N 71°26' W 002°45'1 0.8 6.3
2014-Nov-25 08:01N 71°25' W 002°43'1 0.7 6.3
2014-Nov-25 07:01N 71°25' W 002°42'1 0.7 6.3
2014-Nov-25 06:01N 71°24' W 002°41'1 0.7 6.3
2014-Nov-25 05:01N 71°23' W 002°40'1 0.7 6.4
2014-Nov-25 04:01N 71°23' W 002°38'1 0.7 6.4
2014-Nov-25 03:01N 71°22' W 002°37'1 0.8 6.4
2014-Nov-25 02:01N 71°22' W 002°35'1 0.6 6.5
2014-Nov-25 01:01N 71°22' W 002°34'1 0.7 6.5
2014-Nov-25 00:01N 71°21' W 002°32'1 1.0 6.4
2014-Nov-24 23:01N 71°20' W 002°30'1 0.8 6.5
2014-Nov-24 22:01N 71°20' W 002°28'1 0.8 6.4
2014-Nov-24 21:01N 71°20' W 002°26'1 1.1 6.5
2014-Nov-24 20:01N 71°19' W 002°23'1 1.0 6.5
2014-Nov-24 19:01N 71°19' W 002°20'1 0.8 6.5
2014-Nov-24 18:01N 71°19' W 002°18'1 1.1 6.4
2014-Nov-24 17:01N 71°18' W 002°15'1 0.7 6.2
2014-Nov-24 16:01N 71°17' W 002°14'1 0.6 6.1
2014-Nov-24 15:01N 71°17' W 002°13'1 0.6 6.1
2014-Nov-24 14:01N 71°16' W 002°13'1 0.6 6.2
2014-Nov-24 13:01N 71°16' W 002°13'1 0.6 6.2
2014-Nov-24 12:01N 71°15' W 002°14'0 0.4 6.4
2014-Nov-24 11:01N 71°15' W 002°15'1 0.7 6.6
2014-Nov-24 10:01N 71°14' W 002°16'0 0.4 6.7
2014-Nov-24 09:01N 71°14' W 002°17'1 0.7 6.7
2014-Nov-24 08:01N 71°14' W 002°19'0 0.4 6.7
2014-Nov-24 07:01N 71°14' W 002°20'1 0.6 6.8
2014-Nov-24 06:01N 71°14' W 002°22'0 0.4 6.8
2014-Nov-24 05:01N 71°14' W 002°23'1 0.8 6.8
2014-Nov-24 04:01N 71°13' W 002°25'0 0.4 6.8
2014-Nov-24 03:01N 71°13' W 002°26'0 0.2 6.8
2014-Nov-24 02:01N 71°13' W 002°26'0 0.4 6.7
2014-Nov-24 01:01N 71°13' W 002°28'0 0.2 6.7
2014-Nov-24 00:01N 71°13' W 002°28'0 0.4 6.7
2014-Nov-23 23:01N 71°13' W 002°29'1 0.6 6.6
2014-Nov-23 22:01N 71°13' W 002°30'0 0.4 6.6
2014-Nov-23 21:01N 71°13' W 002°31'0 0.2 6.7
2014-Nov-23 20:01N 71°13' W 002°32'0 0.4 6.7
2014-Nov-23 19:01N 71°13' W 002°33'0 0.4 6.7
2014-Nov-23 18:01N 71°13' W 002°34'0 0.4 6.8
2014-Nov-23 17:01N 71°13' W 002°35'1 0.8 6.8
2014-Nov-23 16:01N 71°12' W 002°37'0 0.4 6.8
2014-Nov-23 15:01N 71°12' W 002°38'1 0.7 6.8
2014-Nov-23 14:02N 71°11' W 002°40'1 0.6 6.8
2014-Nov-23 13:01N 71°11' W 002°40'0 0.4 6.8
2014-Nov-23 12:01N 71°11' W 002°41'1 0.6 6.9
2014-Nov-23 11:01N 71°10' W 002°42'1 0.6 6.9
2014-Nov-23 10:01N 71°10' W 002°43'0 0.4 6.8
2014-Nov-23 09:01N 71°10' W 002°44'0 0.4 6.8
2014-Nov-23 08:01N 71°10' W 002°45'1 0.8 6.8
2014-Nov-23 07:01N 71°09' W 002°47'1 0.8 6.8
2014-Nov-23 06:01N 71°08' W 002°49'1 0.6 6.7
2014-Nov-23 05:01N 71°08' W 002°50'1 0.8 6.7
2014-Nov-23 04:01N 71°08' W 002°52'1 0.7 6.6
2014-Nov-23 03:01N 71°07' W 002°53'1 1.3 6.8
2014-Nov-23 02:01N 71°06' W 002°55'1 0.6 6.8
2014-Nov-23 01:01N 71°05' W 002°55'1 0.6 6.8
2014-Nov-23 00:01N 71°05' W 002°56'1 0.7 6.8
2014-Nov-22 23:01N 71°04' W 002°57'1 0.7 7.4
2014-Nov-22 22:01N 71°04' W 002°58'1 1.3 7.5
2014-Nov-22 21:01N 71°02' W 002°59'1 0.6 7.6
2014-Nov-22 20:01N 71°02' W 003°00'1 0.7 7.6
2014-Nov-22 19:01N 71°01' W 003°01'1 0.6 7.7
2014-Nov-22 18:01N 71°01' W 003°02'1 0.6 7.7
2014-Nov-22 17:01N 71°00' W 003°02'1 0.6 7.7
2014-Nov-22 16:01N 70°59' W 003°02'1 0.6 7.7
2014-Nov-22 15:01N 70°59' W 003°02'1 0.6 7.7
2014-Nov-22 14:01N 70°58' W 003°02'1 0.6 7.7
2014-Nov-22 13:01N 70°58' W 003°02'1 0.6 7.7
2014-Nov-22 12:01N 70°57' W 003°02'1 0.6 7.7
2014-Nov-22 11:01N 70°56' W 003°01'0 0.0 7.7
2014-Nov-22 10:01N 70°56' W 003°01'1 0.6 7.7
2014-Nov-22 09:01N 70°56' W 003°01'0 0.0 7.7
2014-Nov-22 08:01N 70°56' W 003°01'1 0.6 7.7
2014-Nov-22 07:01N 70°55' W 003°01'1 0.6 7.7
2014-Nov-22 06:01N 70°55' W 003°01'0 0.0 7.7
2014-Nov-22 05:01N 70°55' W 003°01'1 0.6 7.7
2014-Nov-22 04:01N 70°54' W 003°01'1 0.6 7.7
2014-Nov-22 03:01N 70°53' W 003°01'1 0.6 7.6
2014-Nov-22 02:01N 70°53' W 003°00'1 0.7 7.6
2014-Nov-22 01:01N 70°52' W 002°59'1 0.7 7.5
2014-Nov-22 00:01N 70°52' W 002°58'0 0.2 7.4
2014-Nov-21 23:01N 70°52' W 002°57'1 0.6 7.3
2014-Nov-21 22:01N 70°51' W 002°56'1 0.7 7.1
2014-Nov-21 21:01N 70°50' W 002°55'1 0.6 6.3
2014-Nov-21 20:01N 70°50' W 002°55'1 0.7 6.1
2014-Nov-21 19:01N 70°49' W 002°53'1 0.7 6.1
2014-Nov-21 18:01N 70°49' W 002°52'1 0.8 6.1
2014-Nov-21 17:01N 70°48' W 002°50'1 0.7 6.1
2014-Nov-21 16:01N 70°47' W 002°49'1 0.6 6.0
2014-Nov-21 15:01N 70°47' W 002°49'1 0.7 6.4
2014-Nov-21 14:01N 70°46' W 002°47'1 0.8 6.7
2014-Nov-21 13:01N 70°46' W 002°46'1 0.8 6.7
2014-Nov-21 12:01N 70°45' W 002°44'1 0.6 6.6
2014-Nov-21 11:01N 70°45' W 002°42'1 0.8 6.6
2014-Nov-21 10:01N 70°44' W 002°40'1 0.8 6.5
2014-Nov-21 09:01N 70°44' W 002°38'1 1.0 6.4
2014-Nov-21 08:01N 70°43' W 002°36'1 1.0 6.4
2014-Nov-21 07:01N 70°43' W 002°34'1 1.0 6.3
2014-Nov-21 06:01N 70°42' W 002°31'1 1.0 6.4
2014-Nov-21 05:01N 70°41' W 002°29'1 1.3 6.4
2014-Nov-21 04:01N 70°40' W 002°27'1 1.4 6.4
2014-Nov-21 03:01N 70°39' W 002°25'1 0.7 6.1
2014-Nov-21 02:01N 70°38' W 002°23'1 1.3 6.0
2014-Nov-21 01:01N 70°37' W 002°22'1 1.2 6.0
2014-Nov-21 00:01N 70°36' W 002°22'1 1.2 6.0
2014-Nov-20 23:01N 70°35' W 002°22'1 0.6 6.0
2014-Nov-20 22:01N 70°34' W 002°22'1 1.2 6.0
2014-Nov-20 21:01N 70°33' W 002°22'1 1.2 6.0
2014-Nov-20 20:01N 70°32' W 002°23'1 0.7 6.0
2014-Nov-20 19:01N 70°31' W 002°24'1 1.3 6.0
2014-Nov-20 18:01N 70°30' W 002°25'1 0.7 6.0
2014-Nov-20 17:01N 70°29' W 002°26'1 1.0 5.9
2014-Nov-20 16:01N 70°29' W 002°29'1 0.8 6.0
2014-Nov-20 15:01N 70°28' W 002°31'1 1.0 6.0
2014-Nov-20 14:01N 70°28' W 002°33'1 1.4 5.9
2014-Nov-20 13:01N 70°26' W 002°35'1 1.2 5.9
2014-Nov-20 12:01N 70°26' W 002°38'1 0.9 5.9
2014-Nov-20 11:01N 70°25' W 002°40'2 2.2 6.0
2014-Nov-20 10:01N 70°23' W 002°44'0 0.0 6.1
2014-Nov-20 09:01N 70°23' W 002°44'1 1.0 6.1
2014-Nov-20 08:01N 70°23' W 002°46'1 0.9 6.1
2014-Nov-20 07:01N 70°22' W 002°48'1 1.4 6.1
2014-Nov-20 06:01N 70°21' W 002°50'1 0.9 6.1
2014-Nov-20 05:01N 70°20' W 002°52'1 1.0 6.1
2014-Nov-20 04:01N 70°20' W 002°55'1 0.8 6.1
2014-Nov-20 03:01N 70°20' W 002°57'1 1.0 6.1
2014-Nov-20 02:01N 70°19' W 002°59'1 0.9 6.1
2014-Nov-20 01:01N 70°19' W 003°01'1 0.9 6.1
2014-Nov-20 00:01N 70°18' W 003°03'1 0.9 6.1
2014-Nov-19 23:01N 70°17' W 003°05'1 1.3 6.2
2014-Nov-19 22:01N 70°16' W 003°06'1 0.6 6.2
2014-Nov-19 21:01N 70°16' W 003°08'1 0.9 6.2
2014-Nov-19 20:01N 70°16' W 003°10'1 0.7 6.2
2014-Nov-19 19:01N 70°15' W 003°11'1 0.7 6.2
2014-Nov-19 18:01N 70°14' W 003°12'1 0.9 6.2
2014-Nov-19 17:01N 70°14' W 003°14'1 0.7 6.3
2014-Nov-19 16:01N 70°13' W 003°15'0 0.2 6.4
2014-Nov-19 15:01N 70°13' W 003°16'1 0.7 6.4
2014-Nov-19 14:01N 70°13' W 003°17'0 0.4 6.3
2014-Nov-19 13:01N 70°13' W 003°18'1 0.7 6.4
2014-Nov-19 12:01N 70°12' W 003°19'1 0.7 6.4
2014-Nov-19 11:01N 70°11' W 003°20'0 0.2 6.4
2014-Nov-19 10:01N 70°11' W 003°21'0 0.4 6.4
2014-Nov-19 09:01N 70°11' W 003°22'1 0.7 6.3
2014-Nov-19 08:01N 70°11' W 003°23'0 0.4 6.3
2014-Nov-19 07:01N 70°11' W 003°25'1 0.7 6.3
2014-Nov-19 06:01N 70°10' W 003°26'0 0.4 6.4
2014-Nov-19 05:01N 70°10' W 003°27'0 0.4 6.6
2014-Nov-19 04:01N 70°10' W 003°28'1 0.6 6.5
2014-Nov-19 03:01N 70°10' W 003°29'1 0.6 6.3
2014-Nov-19 02:01N 70°10' W 003°31'0 0.4 6.2
2014-Nov-19 01:01N 70°10' W 003°32'0 0.4 6.2
2014-Nov-19 00:01N 70°10' W 003°33'1 0.8 6.2
2014-Nov-18 23:01N 70°10' W 003°35'1 0.6 6.2
2014-Nov-18 22:01N 70°10' W 003°37'   6.3
Track history (hours):
 
Tides and Currents Weather Stations Pressure Air Temp Water Temp Dewpoint Dewpoint Depression Visibility Wind Speed Wind Dir Waves Ship Positions

Drifting buoy 44845

Last reported at 2014-Nov-28 22:01 UTC. Time now 2014-Nov-28 22:55 UTC.
Position N 71°38' W 001°26'.

Water temperature 6.0 ° C

Date/timePositionNaut miles runAvg speedWind from/ knotsBaromVisibWave heightAir tempDewpointWater temp
2014-Nov-28 22:01N 71°38' W 001°26'0 0.0 6.0
2014-Nov-28 21:01N 71°38' W 001°26'0 0.4 6.0
2014-Nov-28 20:01N 71°38' W 001°25'1 0.6 6.0
2014-Nov-28 19:01N 71°38' W 001°24'1 0.7 6.0
2014-Nov-28 18:01N 71°37' W 001°23'1 0.6 6.0
2014-Nov-28 17:01N 71°37' W 001°22'1 0.7 5.9
2014-Nov-28 16:01N 71°36' W 001°21'1 0.6 5.9
2014-Nov-28 15:01N 71°35' W 001°20'1 0.7 6.0
2014-Nov-28 14:01N 71°35' W 001°19'1 0.6 6.0
2014-Nov-28 13:01N 71°34' W 001°19'1 0.6 5.9
2014-Nov-28 12:01N 71°34' W 001°18'1 0.6 5.9
2014-Nov-28 11:01N 71°33' W 001°17'1 0.7 5.9
2014-Nov-28 10:01N 71°32' W 001°16'0 0.2 5.8
2014-Nov-28 09:01N 71°32' W 001°16'1 0.6 5.7
2014-Nov-28 08:01N 71°32' W 001°16'1 0.6 5.5
2014-Nov-28 07:01N 71°31' W 001°16'1 0.6 5.5
2014-Nov-28 06:01N 71°31' W 001°15'1 0.6 5.3
2014-Nov-28 05:01N 71°30' W 001°16'0 0.0 5.2
2014-Nov-28 04:01N 71°30' W 001°16'1 0.6 5.2
2014-Nov-28 03:01N 71°29' W 001°16'1 0.6 5.3
2014-Nov-28 02:01N 71°29' W 001°16'1 0.6 5.3
2014-Nov-28 01:01N 71°28' W 001°17'0 0.2 5.2
2014-Nov-28 00:01N 71°28' W 001°17'1 0.7 4.9
2014-Nov-27 23:01N 71°28' W 001°19'1 0.7 4.6
2014-Nov-27 22:01N 71°27' W 001°20'1 0.7 4.7
2014-Nov-27 21:01N 71°26' W 001°21'1 0.6 4.7
2014-Nov-27 20:01N 71°26' W 001°23'1 0.7 4.6
2014-Nov-27 19:01N 71°26' W 001°24'1 0.6 4.2
2014-Nov-27 18:01N 71°26' W 001°26'1 0.6 4.4
2014-Nov-27 17:01N 71°26' W 001°28'1 0.8 4.5
2014-Nov-27 16:01N 71°26' W 001°30'1 0.8 4.7
2014-Nov-27 15:01N 71°26' W 001°32'1 0.6 5.0
2014-Nov-27 14:01N 71°26' W 001°34'1 0.8 5.2
2014-Nov-27 13:01N 71°26' W 001°37'1 0.8 5.3
2014-Nov-27 12:01N 71°26' W 001°38'1 0.8 5.3
2014-Nov-27 11:01N 71°27' W 001°40'1 0.8 5.3
2014-Nov-27 10:01N 71°28' W 001°42'1 0.8 5.3
2014-Nov-27 09:01N 71°28' W 001°44'1 1.0 5.3
2014-Nov-27 08:01N 71°29' W 001°46'1 0.8 5.4
2014-Nov-27 07:01N 71°29' W 001°48'1 0.7 5.4
2014-Nov-27 06:01N 71°30' W 001°49'1 1.2 5.4
2014-Nov-27 05:01N 71°31' W 001°50'1 0.6 5.4
2014-Nov-27 04:01N 71°32' W 001°50'1 0.6 5.5
2014-Nov-27 03:01N 71°32' W 001°51'1 1.2 5.5
2014-Nov-27 02:01N 71°34' W 001°52'1 1.3 5.6
2014-Nov-27 01:01N 71°35' W 001°53'1 0.8 5.6
2014-Nov-27 00:01N 71°35' W 001°55'1 0.8 5.6
2014-Nov-26 23:01N 71°36' W 001°56'1 0.8 5.6
2014-Nov-26 22:01N 71°37' W 001°58'1 1.0 5.6
2014-Nov-26 21:01N 71°37' W 002°01'1 0.8 5.4
2014-Nov-26 20:01N 71°37' W 002°03'2 0.8 5.3
2014-Nov-26 18:01N 71°37' W 002°08'1 0.9 5.4
2014-Nov-26 17:01N 71°37' W 002°11'1 0.9 5.8
2014-Nov-26 16:01N 71°37' W 002°14'1 0.8 6.0
2014-Nov-26 15:01N 71°37' W 002°16'1 0.8 6.1
2014-Nov-26 14:01N 71°37' W 002°19'1 0.8 6.2
2014-Nov-26 13:01N 71°37' W 002°21'1 0.9 6.2
2014-Nov-26 12:01N 71°37' W 002°24'1 0.8 6.2
2014-Nov-26 11:01N 71°37' W 002°26'1 0.9 6.3
2014-Nov-26 10:01N 71°37' W 002°29'1 1.1 6.3
2014-Nov-26 09:01N 71°37' W 002°33'1 0.9 6.3
2014-Nov-26 08:01N 71°37' W 002°36'1 1.3 6.4
2014-Nov-26 07:01N 71°37' W 002°40'1 0.8 6.4
2014-Nov-26 06:01N 71°37' W 002°42'1 1.0 6.4
2014-Nov-26 05:01N 71°36' W 002°44'1 1.0 6.4
2014-Nov-26 04:01N 71°35' W 002°47'1 0.7 6.4
2014-Nov-26 03:01N 71°35' W 002°48'1 0.6 6.4
2014-Nov-26 02:01N 71°34' W 002°49'1 0.6 6.3
2014-Nov-26 01:01N 71°34' W 002°49'1 0.6 6.3
2014-Nov-26 00:01N 71°33' W 002°50'0 0.2 6.3
2014-Nov-25 23:01N 71°33' W 002°50'1 0.6 6.3
2014-Nov-25 22:01N 71°32' W 002°51'1 0.6 6.3
2014-Nov-25 21:01N 71°32' W 002°51'1 0.6 6.3
2014-Nov-25 20:01N 71°31' W 002°52'0 0.0 6.3
2014-Nov-25 19:01N 71°31' W 002°52'1 0.6 6.3
2014-Nov-25 18:01N 71°31' W 002°52'1 0.6 6.3
2014-Nov-25 17:01N 71°30' W 002°53'1 0.6 6.3
2014-Nov-25 16:01N 71°29' W 002°53'1 0.6 6.3
2014-Nov-25 15:01N 71°29' W 002°52'1 0.6 6.4
2014-Nov-25 14:01N 71°28' W 002°52'1 0.7 6.4
2014-Nov-25 13:01N 71°28' W 002°50'1 0.8 6.4
2014-Nov-25 12:01N 71°27' W 002°49'1 0.7 6.3
2014-Nov-25 11:01N 71°26' W 002°47'1 0.7 6.3
2014-Nov-25 10:01N 71°26' W 002°46'0 0.4 6.3
2014-Nov-25 09:01N 71°26' W 002°45'1 0.8 6.3
2014-Nov-25 08:01N 71°25' W 002°43'1 0.7 6.3
2014-Nov-25 07:01N 71°25' W 002°42'1 0.7 6.3
2014-Nov-25 06:01N 71°24' W 002°41'1 0.7 6.3
2014-Nov-25 05:01N 71°23' W 002°40'1 0.7 6.4
2014-Nov-25 04:01N 71°23' W 002°38'1 0.7 6.4
2014-Nov-25 03:01N 71°22' W 002°37'1 0.8 6.4
2014-Nov-25 02:01N 71°22' W 002°35'1 0.6 6.5
2014-Nov-25 01:01N 71°22' W 002°34'1 0.7 6.5
2014-Nov-25 00:01N 71°21' W 002°32'1 1.0 6.4
2014-Nov-24 23:01N 71°20' W 002°30'1 0.8 6.5
2014-Nov-24 22:01N 71°20' W 002°28'1 0.8 6.4
2014-Nov-24 21:01N 71°20' W 002°26'1 1.1 6.5
2014-Nov-24 20:01N 71°19' W 002°23'1 1.0 6.5
2014-Nov-24 19:01N 71°19' W 002°20'1 0.8 6.5
2014-Nov-24 18:01N 71°19' W 002°18'1 1.1 6.4
2014-Nov-24 17:01N 71°18' W 002°15'1 0.7 6.2
2014-Nov-24 16:01N 71°17' W 002°14'1 0.6 6.1
2014-Nov-24 15:01N 71°17' W 002°13'1 0.6 6.1
2014-Nov-24 14:01N 71°16' W 002°13'1 0.6 6.2
2014-Nov-24 13:01N 71°16' W 002°13'1 0.6 6.2
2014-Nov-24 12:01N 71°15' W 002°14'0 0.4 6.4
2014-Nov-24 11:01N 71°15' W 002°15'1 0.7 6.6
2014-Nov-24 10:01N 71°14' W 002°16'0 0.4 6.7
2014-Nov-24 09:01N 71°14' W 002°17'1 0.7 6.7
2014-Nov-24 08:01N 71°14' W 002°19'0 0.4 6.7
2014-Nov-24 07:01N 71°14' W 002°20'1 0.6 6.8
2014-Nov-24 06:01N 71°14' W 002°22'0 0.4 6.8
2014-Nov-24 05:01N 71°14' W 002°23'1 0.8 6.8
2014-Nov-24 04:01N 71°13' W 002°25'0 0.4 6.8
2014-Nov-24 03:01N 71°13' W 002°26'0 0.2 6.8
2014-Nov-24 02:01N 71°13' W 002°26'0 0.4 6.7
2014-Nov-24 01:01N 71°13' W 002°28'0 0.2 6.7
2014-Nov-24 00:01N 71°13' W 002°28'0 0.4 6.7
2014-Nov-23 23:01N 71°13' W 002°29'1 0.6 6.6
2014-Nov-23 22:01N 71°13' W 002°30'0 0.4 6.6
2014-Nov-23 21:01N 71°13' W 002°31'0 0.2 6.7
2014-Nov-23 20:01N 71°13' W 002°32'0 0.4 6.7
2014-Nov-23 19:01N 71°13' W 002°33'0 0.4 6.7
2014-Nov-23 18:01N 71°13' W 002°34'0 0.4 6.8
2014-Nov-23 17:01N 71°13' W 002°35'1 0.8 6.8
2014-Nov-23 16:01N 71°12' W 002°37'0 0.4 6.8
2014-Nov-23 15:01N 71°12' W 002°38'1 0.7 6.8
2014-Nov-23 14:02N 71°11' W 002°40'1 0.6 6.8
2014-Nov-23 13:01N 71°11' W 002°40'0 0.4 6.8
2014-Nov-23 12:01N 71°11' W 002°41'1 0.6 6.9
2014-Nov-23 11:01N 71°10' W 002°42'1 0.6 6.9
2014-Nov-23 10:01N 71°10' W 002°43'0 0.4 6.8
2014-Nov-23 09:01N 71°10' W 002°44'0 0.4 6.8
2014-Nov-23 08:01N 71°10' W 002°45'1 0.8 6.8
2014-Nov-23 07:01N 71°09' W 002°47'1 0.8 6.8
2014-Nov-23 06:01N 71°08' W 002°49'1 0.6 6.7
2014-Nov-23 05:01N 71°08' W 002°50'1 0.8 6.7
2014-Nov-23 04:01N 71°08' W 002°52'1 0.7 6.6
2014-Nov-23 03:01N 71°07' W 002°53'1 1.3 6.8
2014-Nov-23 02:01N 71°06' W 002°55'1 0.6 6.8
2014-Nov-23 01:01N 71°05' W 002°55'1 0.6 6.8
2014-Nov-23 00:01N 71°05' W 002°56'1 0.7 6.8
2014-Nov-22 23:01N 71°04' W 002°57'1 0.7 7.4
2014-Nov-22 22:01N 71°04' W 002°58'1 1.3 7.5
2014-Nov-22 21:01N 71°02' W 002°59'1 0.6 7.6
2014-Nov-22 20:01N 71°02' W 003°00'1 0.7 7.6
2014-Nov-22 19:01N 71°01' W 003°01'1 0.6 7.7
2014-Nov-22 18:01N 71°01' W 003°02'1 0.6 7.7
2014-Nov-22 17:01N 71°00' W 003°02'1 0.6 7.7
2014-Nov-22 16:01N 70°59' W 003°02'1 0.6 7.7
2014-Nov-22 15:01N 70°59' W 003°02'1 0.6 7.7
2014-Nov-22 14:01N 70°58' W 003°02'1 0.6 7.7
2014-Nov-22 13:01N 70°58' W 003°02'1 0.6 7.7
2014-Nov-22 12:01N 70°57' W 003°02'1 0.6 7.7
2014-Nov-22 11:01N 70°56' W 003°01'0 0.0 7.7
2014-Nov-22 10:01N 70°56' W 003°01'1 0.6 7.7
2014-Nov-22 09:01N 70°56' W 003°01'0 0.0 7.7
2014-Nov-22 08:01N 70°56' W 003°01'1 0.6 7.7
2014-Nov-22 07:01N 70°55' W 003°01'1 0.6 7.7
2014-Nov-22 06:01N 70°55' W 003°01'0 0.0 7.7
2014-Nov-22 05:01N 70°55' W 003°01'1 0.6 7.7
2014-Nov-22 04:01N 70°54' W 003°01'1 0.6 7.7
2014-Nov-22 03:01N 70°53' W 003°01'1 0.6 7.6
2014-Nov-22 02:01N 70°53' W 003°00'1 0.7 7.6
2014-Nov-22 01:01N 70°52' W 002°59'1 0.7 7.5
2014-Nov-22 00:01N 70°52' W 002°58'0 0.2 7.4
2014-Nov-21 23:01N 70°52' W 002°57'1 0.6 7.3
2014-Nov-21 22:01N 70°51' W 002°56'1 0.7 7.1
2014-Nov-21 21:01N 70°50' W 002°55'1 0.6 6.3
2014-Nov-21 20:01N 70°50' W 002°55'1 0.7 6.1
2014-Nov-21 19:01N 70°49' W 002°53'1 0.7 6.1
2014-Nov-21 18:01N 70°49' W 002°52'1 0.8 6.1
2014-Nov-21 17:01N 70°48' W 002°50'1 0.7 6.1
2014-Nov-21 16:01N 70°47' W 002°49'1 0.6 6.0
2014-Nov-21 15:01N 70°47' W 002°49'1 0.7 6.4
2014-Nov-21 14:01N 70°46' W 002°47'1 0.8 6.7
2014-Nov-21 13:01N 70°46' W 002°46'1 0.8 6.7
2014-Nov-21 12:01N 70°45' W 002°44'1 0.6 6.6
2014-Nov-21 11:01N 70°45' W 002°42'1 0.8 6.6
2014-Nov-21 10:01N 70°44' W 002°40'1 0.8 6.5
2014-Nov-21 09:01N 70°44' W 002°38'1 1.0 6.4
2014-Nov-21 08:01N 70°43' W 002°36'1 1.0 6.4
2014-Nov-21 07:01N 70°43' W 002°34'1 1.0 6.3
2014-Nov-21 06:01N 70°42' W 002°31'1 1.0 6.4
2014-Nov-21 05:01N 70°41' W 002°29'1 1.3 6.4
2014-Nov-21 04:01N 70°40' W 002°27'1 1.4 6.4
2014-Nov-21 03:01N 70°39' W 002°25'1 0.7 6.1
2014-Nov-21 02:01N 70°38' W 002°23'1 1.3 6.0
2014-Nov-21 01:01N 70°37' W 002°22'1 1.2 6.0
2014-Nov-21 00:01N 70°36' W 002°22'1 1.2 6.0
2014-Nov-20 23:01N 70°35' W 002°22'1 0.6 6.0
2014-Nov-20 22:01N 70°34' W 002°22'1 1.2 6.0
2014-Nov-20 21:01N 70°33' W 002°22'1 1.2 6.0
2014-Nov-20 20:01N 70°32' W 002°23'1 0.7 6.0
2014-Nov-20 19:01N 70°31' W 002°24'1 1.3 6.0
2014-Nov-20 18:01N 70°30' W 002°25'1 0.7 6.0
2014-Nov-20 17:01N 70°29' W 002°26'1 1.0 5.9
2014-Nov-20 16:01N 70°29' W 002°29'1 0.8 6.0
2014-Nov-20 15:01N 70°28' W 002°31'1 1.0 6.0
2014-Nov-20 14:01N 70°28' W 002°33'1 1.4 5.9
2014-Nov-20 13:01N 70°26' W 002°35'1 1.2 5.9
2014-Nov-20 12:01N 70°26' W 002°38'1 0.9 5.9
2014-Nov-20 11:01N 70°25' W 002°40'2 2.2 6.0
2014-Nov-20 10:01N 70°23' W 002°44'0 0.0 6.1
2014-Nov-20 09:01N 70°23' W 002°44'1 1.0 6.1
2014-Nov-20 08:01N 70°23' W 002°46'1 0.9 6.1
2014-Nov-20 07:01N 70°22' W 002°48'1 1.4 6.1
2014-Nov-20 06:01N 70°21' W 002°50'1 0.9 6.1
2014-Nov-20 05:01N 70°20' W 002°52'1 1.0 6.1
2014-Nov-20 04:01N 70°20' W 002°55'1 0.8 6.1
2014-Nov-20 03:01N 70°20' W 002°57'1 1.0 6.1
2014-Nov-20 02:01N 70°19' W 002°59'1 0.9 6.1
2014-Nov-20 01:01N 70°19' W 003°01'1 0.9 6.1
2014-Nov-20 00:01N 70°18' W 003°03'1 0.9 6.1
2014-Nov-19 23:01N 70°17' W 003°05'1 1.3 6.2
2014-Nov-19 22:01N 70°16' W 003°06'1 0.6 6.2
2014-Nov-19 21:01N 70°16' W 003°08'1 0.9 6.2
2014-Nov-19 20:01N 70°16' W 003°10'1 0.7 6.2
2014-Nov-19 19:01N 70°15' W 003°11'1 0.7 6.2
2014-Nov-19 18:01N 70°14' W 003°12'1 0.9 6.2
2014-Nov-19 17:01N 70°14' W 003°14'1 0.7 6.3
2014-Nov-19 16:01N 70°13' W 003°15'0 0.2 6.4
2014-Nov-19 15:01N 70°13' W 003°16'1 0.7 6.4
2014-Nov-19 14:01N 70°13' W 003°17'0 0.4 6.3
2014-Nov-19 13:01N 70°13' W 003°18'1 0.7 6.4
2014-Nov-19 12:01N 70°12' W 003°19'1 0.7 6.4
2014-Nov-19 11:01N 70°11' W 003°20'0 0.2 6.4
2014-Nov-19 10:01N 70°11' W 003°21'0 0.4 6.4
2014-Nov-19 09:01N 70°11' W 003°22'1 0.7 6.3
2014-Nov-19 08:01N 70°11' W 003°23'0 0.4 6.3
2014-Nov-19 07:01N 70°11' W 003°25'1 0.7 6.3
2014-Nov-19 06:01N 70°10' W 003°26'0 0.4 6.4
2014-Nov-19 05:01N 70°10' W 003°27'0 0.4 6.6
2014-Nov-19 04:01N 70°10' W 003°28'1 0.6 6.5
2014-Nov-19 03:01N 70°10' W 003°29'1 0.6 6.3
2014-Nov-19 02:01N 70°10' W 003°31'0 0.4 6.2
2014-Nov-19 01:01N 70°10' W 003°32'0 0.4 6.2
2014-Nov-19 00:01N 70°10' W 003°33'1 0.8 6.2
2014-Nov-18 23:01N 70°10' W 003°35'1 0.6 6.2
2014-Nov-18 22:01N 70°10' W 003°37'   6.3

Dump ship's entire track history